createdAt,value
2019-02-11T00:00:24.027Z,984.85
2019-02-11T00:01:24.027Z,984.86
2019-02-11T00:02:24.001Z,984.88
2019-02-11T00:03:23.991Z,984.85
2019-02-11T00:04:23.990Z,984.88
2019-02-11T00:05:23.987Z,984.94
2019-02-11T00:06:24.025Z,984.91
2019-02-11T00:07:23.985Z,984.83
2019-02-11T00:08:23.952Z,984.85
2019-02-11T00:09:23.938Z,984.92
2019-02-11T00:10:24.007Z,984.85
2019-02-11T00:11:23.920Z,984.93
2019-02-11T00:12:23.910Z,984.94
2019-02-11T00:13:23.879Z,985.00
2019-02-11T00:14:23.963Z,984.94
2019-02-11T00:15:23.859Z,985.05
2019-02-11T00:16:23.902Z,985.02
2019-02-11T00:17:23.856Z,985.01
2019-02-11T00:18:23.934Z,985.06
2019-02-11T00:19:23.816Z,985.07
2019-02-11T00:20:23.806Z,984.98
2019-02-11T00:21:23.832Z,985.15
2019-02-11T00:22:23.801Z,985.13
2019-02-11T00:23:23.788Z,985.25
2019-02-11T00:24:23.766Z,985.28
2019-02-11T00:25:23.754Z,985.19
2019-02-11T00:26:23.748Z,985.34
2019-02-11T00:27:23.730Z,985.25
2019-02-11T00:28:23.722Z,985.28
2019-02-11T00:29:23.712Z,985.25
2019-02-11T00:30:23.699Z,985.21
2019-02-11T00:31:23.781Z,985.38
2019-02-11T00:32:23.674Z,985.30
2019-02-11T00:33:23.665Z,985.20
2019-02-11T00:34:23.663Z,985.31
2019-02-11T00:35:23.647Z,985.25
2019-02-11T00:36:23.628Z,985.39
2019-02-11T00:37:23.624Z,985.24
2019-02-11T00:38:23.615Z,985.39
2019-02-11T00:39:23.599Z,985.47
2019-02-11T00:40:23.599Z,985.48
2019-02-11T00:41:23.590Z,985.49
2019-02-11T00:42:23.564Z,985.50
2019-02-11T00:43:23.564Z,985.43
2019-02-11T00:44:23.569Z,985.46
2019-02-11T00:45:23.565Z,985.51
2019-02-11T00:46:23.569Z,985.60
2019-02-11T00:47:23.523Z,985.56
2019-02-11T00:48:23.503Z,985.57
2019-02-11T00:49:23.507Z,985.76
2019-02-11T00:50:23.483Z,985.76
2019-02-11T00:51:23.467Z,985.48
2019-02-11T00:52:23.458Z,985.60
2019-02-11T00:53:23.465Z,985.69
2019-02-11T00:54:23.431Z,985.62
2019-02-11T00:55:23.433Z,985.57
2019-02-11T00:56:23.430Z,985.69
2019-02-11T00:57:23.404Z,985.61
2019-02-11T00:58:23.396Z,985.65
2019-02-11T00:59:23.382Z,985.70
2019-02-11T01:00:23.366Z,985.72
2019-02-11T01:01:23.355Z,985.78
2019-02-11T01:02:23.354Z,985.73
2019-02-11T01:03:23.356Z,985.79
2019-02-11T01:04:23.340Z,985.84
2019-02-11T01:05:23.370Z,985.87
2019-02-11T01:06:23.310Z,985.90
2019-02-11T01:07:23.312Z,985.89
2019-02-11T01:08:23.304Z,985.99
2019-02-11T01:09:23.310Z,985.97
2019-02-11T01:10:23.262Z,985.93
2019-02-11T01:11:23.316Z,985.95
2019-02-11T01:12:23.240Z,985.98
2019-02-11T01:13:27.818Z,986.06
2019-02-11T01:14:23.214Z,985.97
2019-02-11T01:15:23.216Z,986.12
2019-02-11T01:16:23.200Z,986.14
2019-02-11T01:17:23.190Z,986.16
2019-02-11T01:18:23.170Z,986.15
2019-02-11T01:19:23.169Z,986.21
2019-02-11T01:20:23.157Z,986.21
2019-02-11T01:21:23.149Z,986.33
2019-02-11T01:22:23.126Z,986.25
2019-02-11T01:23:23.119Z,986.21
2019-02-11T01:24:23.109Z,986.18
2019-02-11T01:25:23.158Z,986.27
2019-02-11T01:26:23.096Z,986.25
2019-02-11T01:27:23.105Z,986.27
2019-02-11T01:28:23.152Z,986.20
2019-02-11T01:29:23.057Z,986.25
2019-02-11T01:30:23.047Z,986.27
2019-02-11T01:31:23.072Z,986.20
2019-02-11T01:32:23.027Z,986.33
2019-02-11T01:33:23.009Z,986.30
2019-02-11T01:34:22.996Z,986.33
2019-02-11T01:35:22.992Z,986.24
2019-02-11T01:36:22.979Z,986.29
2019-02-11T01:37:22.977Z,986.41
2019-02-11T01:38:23.038Z,986.44
2019-02-11T01:39:22.947Z,986.50
2019-02-11T01:40:22.937Z,986.49
2019-02-11T01:41:22.923Z,986.50
2019-02-11T01:42:22.917Z,986.65
2019-02-11T01:43:22.907Z,986.58
2019-02-11T01:44:22.890Z,986.77
2019-02-11T01:45:22.884Z,986.71
2019-02-11T01:46:22.867Z,986.70
2019-02-11T01:47:22.858Z,986.73
2019-02-11T01:48:22.901Z,986.81
2019-02-11T01:49:22.856Z,986.76
2019-02-11T01:50:22.823Z,986.82
2019-02-11T01:51:22.815Z,986.83
2019-02-11T01:52:22.809Z,986.84
2019-02-11T01:53:22.802Z,986.90
2019-02-11T01:54:22.793Z,986.88
2019-02-11T01:55:22.770Z,986.92
2019-02-11T01:56:22.770Z,986.80
2019-02-11T01:57:22.750Z,986.95
2019-02-11T01:58:22.742Z,986.94
2019-02-11T01:59:22.731Z,986.95
2019-02-11T02:00:22.746Z,986.87
2019-02-11T02:01:22.728Z,986.96
2019-02-11T02:02:22.737Z,987.04
2019-02-11T02:03:22.688Z,987.00
2019-02-11T02:04:22.668Z,986.95
2019-02-11T02:05:22.669Z,986.98
2019-02-11T02:06:22.657Z,986.98
2019-02-11T02:07:22.648Z,987.05
2019-02-11T02:08:22.616Z,987.01
2019-02-11T02:09:22.611Z,987.00
2019-02-11T02:10:22.605Z,987.04
2019-02-11T02:11:22.603Z,987.03
2019-02-11T02:12:22.587Z,987.07
2019-02-11T02:13:22.569Z,987.06
2019-02-11T02:14:22.573Z,987.07
2019-02-11T02:15:22.552Z,987.03
2019-02-11T02:16:22.541Z,987.08
2019-02-11T02:17:22.535Z,987.07
2019-02-11T02:18:22.525Z,987.05
2019-02-11T02:19:22.496Z,987.16
2019-02-11T02:20:22.490Z,987.10
2019-02-11T02:21:22.490Z,987.13
2019-02-11T02:22:22.471Z,987.21
2019-02-11T02:23:22.480Z,987.22
2019-02-11T02:24:22.451Z,987.26
2019-02-11T02:25:22.445Z,987.20
2019-02-11T02:26:22.429Z,987.21
2019-02-11T02:27:22.411Z,987.23
2019-02-11T02:28:22.492Z,987.22
2019-02-11T02:29:22.399Z,987.37
2019-02-11T02:30:22.386Z,987.39
2019-02-11T02:31:22.370Z,987.41
2019-02-11T02:32:22.371Z,987.50
2019-02-11T02:33:22.420Z,987.49
2019-02-11T02:34:22.363Z,987.53
2019-02-11T02:35:22.321Z,987.53
2019-02-11T02:36:22.372Z,987.52
2019-02-11T02:37:22.312Z,987.72
2019-02-11T02:38:22.295Z,987.69
2019-02-11T02:39:22.296Z,987.66
2019-02-11T02:40:22.366Z,987.75
2019-02-11T02:41:22.268Z,987.79
2019-02-11T02:42:22.257Z,987.86
2019-02-11T02:43:22.246Z,987.87
2019-02-11T02:44:22.234Z,987.93
2019-02-11T02:45:22.229Z,987.88
2019-02-11T02:46:22.264Z,987.99
2019-02-11T02:47:22.249Z,988.03
2019-02-11T02:48:22.184Z,988.07
2019-02-11T02:49:22.177Z,987.99
2019-02-11T02:50:22.165Z,988.06
2019-02-11T02:51:22.168Z,988.16
2019-02-11T02:52:22.154Z,988.23
2019-02-11T02:53:22.140Z,988.22
2019-02-11T02:54:22.124Z,988.20
2019-02-11T02:55:22.112Z,988.29
2019-02-11T02:56:22.117Z,988.34
2019-02-11T02:57:22.090Z,988.38
2019-02-11T02:58:22.081Z,988.38
2019-02-11T02:59:22.076Z,988.44
2019-02-11T03:00:22.062Z,988.44
2019-02-11T03:01:22.055Z,988.46
2019-02-11T03:02:22.039Z,988.47
2019-02-11T03:03:22.033Z,988.57
2019-02-11T03:04:22.026Z,988.59
2019-02-11T03:05:22.003Z,988.61
2019-02-11T03:06:21.997Z,988.65
2019-02-11T03:07:21.989Z,988.68
2019-02-11T03:08:21.972Z,988.70
2019-02-11T03:09:21.966Z,988.75
2019-02-11T03:10:21.953Z,988.76
2019-02-11T03:11:21.957Z,988.74
2019-02-11T03:12:21.936Z,988.83
2019-02-11T03:13:21.969Z,988.83
2019-02-11T03:14:21.911Z,988.82
2019-02-11T03:15:21.897Z,988.80
2019-02-11T03:16:21.929Z,988.81
2019-02-11T03:17:21.884Z,988.96
2019-02-11T03:18:21.867Z,988.99
2019-02-11T03:19:21.857Z,988.99
2019-02-11T03:20:21.865Z,989.11
2019-02-11T03:21:21.840Z,989.03
2019-02-11T03:22:21.821Z,989.13
2019-02-11T03:23:21.892Z,989.09
2019-02-11T03:24:21.804Z,989.17
2019-02-11T03:25:21.842Z,989.24
2019-02-11T03:26:21.783Z,989.24
2019-02-11T03:27:21.780Z,989.33
2019-02-11T03:28:21.765Z,989.35
2019-02-11T03:29:21.742Z,989.37
2019-02-11T03:30:21.742Z,989.35
2019-02-11T03:31:21.776Z,989.37
2019-02-11T03:32:21.725Z,989.53
2019-02-11T03:33:21.860Z,989.50
2019-02-11T03:34:21.694Z,989.52
2019-02-11T03:35:21.684Z,989.60
2019-02-11T03:36:21.671Z,989.59
2019-02-11T03:37:21.674Z,989.64
2019-02-11T03:38:21.671Z,989.60
2019-02-11T03:39:21.636Z,989.66
2019-02-11T03:40:21.640Z,989.73
2019-02-11T03:41:21.624Z,989.78
2019-02-11T03:42:21.604Z,989.77
2019-02-11T03:43:21.753Z,989.86
2019-02-11T03:44:21.593Z,989.94
2019-02-11T03:45:21.572Z,989.95
2019-02-11T03:46:21.570Z,989.96
2019-02-11T03:47:21.664Z,990.00
2019-02-11T03:48:21.543Z,989.99
2019-02-11T03:49:21.534Z,990.11
2019-02-11T03:50:21.525Z,990.02
2019-02-11T03:51:21.521Z,990.17
2019-02-11T03:52:21.517Z,990.15
2019-02-11T03:53:21.493Z,990.23
2019-02-11T03:54:21.487Z,990.27
2019-02-11T03:55:21.505Z,990.22
2019-02-11T03:56:21.459Z,990.24
2019-02-11T03:57:21.445Z,990.35
2019-02-11T03:58:21.430Z,990.29
2019-02-11T03:59:21.423Z,990.28
2019-02-11T04:00:21.422Z,990.40
2019-02-11T04:01:21.406Z,990.46
2019-02-11T04:02:21.397Z,990.41
2019-02-11T04:03:21.377Z,990.52
2019-02-11T04:04:21.367Z,990.52
2019-02-11T04:05:21.357Z,990.60
2019-02-11T04:06:21.357Z,990.58
2019-02-11T04:07:21.350Z,990.60
2019-02-11T04:08:21.333Z,990.67
2019-02-11T04:09:21.319Z,990.59
2019-02-11T04:10:21.311Z,990.59
2019-02-11T04:11:21.298Z,990.72
2019-02-11T04:12:21.297Z,990.72
2019-02-11T04:13:21.262Z,990.90
2019-02-11T04:14:25.082Z,990.87
2019-02-11T04:15:21.266Z,990.88
2019-02-11T04:16:21.242Z,990.91
2019-02-11T04:17:21.232Z,990.93
2019-02-11T04:18:21.225Z,990.92
2019-02-11T04:19:21.204Z,990.94
2019-02-11T04:20:21.194Z,990.97
2019-02-11T04:21:21.180Z,991.03
2019-02-11T04:22:21.174Z,991.05
2019-02-11T04:23:21.174Z,991.08
2019-02-11T04:24:21.158Z,991.06
2019-02-11T04:25:21.141Z,991.13
2019-02-11T04:26:21.134Z,991.16
2019-02-11T04:27:21.145Z,991.13
2019-02-11T04:28:21.116Z,991.25
2019-02-11T04:29:21.116Z,991.35
2019-02-11T04:30:21.104Z,991.27
2019-02-11T04:31:21.077Z,991.25
2019-02-11T04:32:21.072Z,991.36
2019-02-11T04:33:21.058Z,991.34
2019-02-11T04:34:21.054Z,991.40
2019-02-11T04:35:21.055Z,991.40
2019-02-11T04:36:21.058Z,991.47
2019-02-11T04:37:21.015Z,991.47
2019-02-11T04:38:21.009Z,991.42
2019-02-11T04:39:20.997Z,991.50
2019-02-11T04:40:21.013Z,991.61
2019-02-11T04:41:21.019Z,991.57
2019-02-11T04:42:20.955Z,991.66
2019-02-11T04:43:20.943Z,991.59
2019-02-11T04:44:20.972Z,991.60
2019-02-11T04:45:20.933Z,991.63
2019-02-11T04:46:20.947Z,991.63
2019-02-11T04:47:20.917Z,991.77
2019-02-11T04:48:20.916Z,991.70
2019-02-11T04:49:20.895Z,991.75
2019-02-11T04:50:20.901Z,991.79
2019-02-11T04:51:20.919Z,991.83
2019-02-11T04:52:20.887Z,991.83
2019-02-11T04:53:20.842Z,991.85
2019-02-11T04:54:20.855Z,991.88
2019-02-11T04:55:20.872Z,991.96
2019-02-11T04:56:20.811Z,991.98
2019-02-11T04:57:20.823Z,991.95
2019-02-11T04:58:20.802Z,992.05
2019-02-11T04:59:20.770Z,992.02
2019-02-11T05:00:20.855Z,992.06
2019-02-11T05:01:20.756Z,992.07
2019-02-11T05:02:20.766Z,992.02
2019-02-11T05:03:20.743Z,992.09
2019-02-11T05:04:20.740Z,992.11
2019-02-11T05:05:20.712Z,992.20
2019-02-11T05:06:20.721Z,992.27
2019-02-11T05:07:20.702Z,992.23
2019-02-11T05:08:20.680Z,992.36
2019-02-11T05:09:20.704Z,992.22
2019-02-11T05:10:20.662Z,992.26
2019-02-11T05:11:20.660Z,992.18
2019-02-11T05:12:20.674Z,992.33
2019-02-11T05:13:20.625Z,992.34
2019-02-11T05:14:20.612Z,992.33
2019-02-11T05:15:20.642Z,992.41
2019-02-11T05:16:20.644Z,992.43
2019-02-11T05:17:20.635Z,992.46
2019-02-11T05:18:20.563Z,992.51
2019-02-11T05:19:20.581Z,992.35
2019-02-11T05:20:20.565Z,992.47
2019-02-11T05:21:20.552Z,992.47
2019-02-11T05:22:20.537Z,992.52
2019-02-11T05:23:20.521Z,992.50
2019-02-11T05:24:20.523Z,992.51
2019-02-11T05:25:20.530Z,992.60
2019-02-11T05:26:20.493Z,992.68
2019-02-11T05:27:20.558Z,992.58
2019-02-11T05:28:20.580Z,992.69
2019-02-11T05:29:20.495Z,992.66
2019-02-11T05:30:20.437Z,992.65
2019-02-11T05:31:20.425Z,992.78
2019-02-11T05:32:20.425Z,992.84
2019-02-11T05:33:20.670Z,992.90
2019-02-11T05:34:20.393Z,992.85
2019-02-11T05:35:20.431Z,992.89
2019-02-11T05:36:20.367Z,992.92
2019-02-11T05:37:20.371Z,992.89
2019-02-11T05:38:20.364Z,993.06
2019-02-11T05:39:20.333Z,992.99
2019-02-11T05:40:20.322Z,993.02
2019-02-11T05:41:20.319Z,993.08
2019-02-11T05:42:20.297Z,993.09
2019-02-11T05:43:20.313Z,993.00
2019-02-11T05:44:20.295Z,993.07
2019-02-11T05:45:20.278Z,993.17
2019-02-11T05:46:20.254Z,993.17
2019-02-11T05:47:20.244Z,993.12
2019-02-11T05:48:20.233Z,993.27
2019-02-11T05:49:20.222Z,993.18
2019-02-11T05:50:20.220Z,993.17
2019-02-11T05:51:20.236Z,993.27
2019-02-11T05:52:20.218Z,993.23
2019-02-11T05:53:20.234Z,993.20
2019-02-11T05:54:20.277Z,993.29
2019-02-11T05:55:20.206Z,993.30
2019-02-11T05:56:20.150Z,993.38
2019-02-11T05:57:20.169Z,993.39
2019-02-11T05:58:20.151Z,993.45
2019-02-11T05:59:20.150Z,993.42
2019-02-11T06:00:20.171Z,993.49
2019-02-11T06:01:20.091Z,993.38
2019-02-11T06:02:20.080Z,993.47
2019-02-11T06:03:20.066Z,993.51
2019-02-11T06:04:20.055Z,993.55
2019-02-11T06:05:20.044Z,993.58
2019-02-11T06:06:20.059Z,993.56
2019-02-11T06:07:20.031Z,993.63
2019-02-11T06:08:20.019Z,993.62
2019-02-11T06:09:20.006Z,993.52
2019-02-11T06:10:19.987Z,993.65
2019-02-11T06:11:19.990Z,993.60
2019-02-11T06:12:19.971Z,993.63
2019-02-11T06:13:19.957Z,993.67
2019-02-11T06:14:19.945Z,993.76
2019-02-11T06:15:19.942Z,993.73
2019-02-11T06:16:19.927Z,993.81
2019-02-11T06:17:19.919Z,993.81
2019-02-11T06:18:19.943Z,993.88
2019-02-11T06:19:20.015Z,993.84
2019-02-11T06:20:19.891Z,993.84
2019-02-11T06:21:19.867Z,993.81
2019-02-11T06:22:19.863Z,993.91
2019-02-11T06:23:19.847Z,993.94
2019-02-11T06:24:19.832Z,993.94
2019-02-11T06:25:19.924Z,994.05
2019-02-11T06:26:19.826Z,994.05
2019-02-11T06:27:19.801Z,994.05
2019-02-11T06:28:19.799Z,994.06
2019-02-11T06:29:19.795Z,994.09
2019-02-11T06:30:19.776Z,994.07
2019-02-11T06:31:19.766Z,994.17
2019-02-11T06:32:19.758Z,994.22
2019-02-11T06:33:19.757Z,994.27
2019-02-11T06:34:19.771Z,994.17
2019-02-11T06:35:19.717Z,994.26
2019-02-11T06:36:19.700Z,994.31
2019-02-11T06:37:19.690Z,994.25
2019-02-11T06:38:19.686Z,994.31
2019-02-11T06:39:19.673Z,994.30
2019-02-11T06:40:19.668Z,994.34
2019-02-11T06:41:19.664Z,994.32
2019-02-11T06:42:19.635Z,994.41
2019-02-11T06:43:19.621Z,994.44
2019-02-11T06:44:19.611Z,994.39
2019-02-11T06:45:19.611Z,994.61
2019-02-11T06:46:19.598Z,994.41
2019-02-11T06:47:19.585Z,994.45
2019-02-11T06:48:19.566Z,994.50
2019-02-11T06:49:19.565Z,994.50
2019-02-11T06:50:19.549Z,994.53
2019-02-11T06:51:19.549Z,994.63
2019-02-11T06:52:19.521Z,994.60
2019-02-11T06:53:19.513Z,994.67
2019-02-11T06:54:19.505Z,994.60
2019-02-11T06:55:19.493Z,994.69
2019-02-11T06:56:19.491Z,994.76
2019-02-11T06:57:19.493Z,994.72
2019-02-11T06:58:19.454Z,994.76
2019-02-11T06:59:19.450Z,994.75
2019-02-11T07:00:19.443Z,994.86
2019-02-11T07:01:19.427Z,994.82
2019-02-11T07:02:19.415Z,994.95
2019-02-11T07:03:19.413Z,994.97
2019-02-11T07:04:19.423Z,994.87
2019-02-11T07:05:19.381Z,994.90
2019-02-11T07:06:19.377Z,994.97
2019-02-11T07:07:19.365Z,994.96
2019-02-11T07:08:19.353Z,994.89
2019-02-11T07:09:19.337Z,995.01
2019-02-11T07:10:19.329Z,995.09
2019-02-11T07:11:19.381Z,994.97
2019-02-11T07:12:19.299Z,995.02
2019-02-11T07:13:20.591Z,995.07
2019-02-11T07:14:19.287Z,995.08
2019-02-11T07:15:22.089Z,995.08
2019-02-11T07:16:19.309Z,995.10
2019-02-11T07:17:19.251Z,995.12
2019-02-11T07:18:19.245Z,995.18
2019-02-11T07:19:19.243Z,995.10
2019-02-11T07:20:19.218Z,995.21
2019-02-11T07:21:19.204Z,995.23
2019-02-11T07:22:19.193Z,995.19
2019-02-11T07:23:19.186Z,995.27
2019-02-11T07:24:19.184Z,995.39
2019-02-11T07:25:19.167Z,995.38
2019-02-11T07:26:19.164Z,995.35
2019-02-11T07:27:19.146Z,995.41
2019-02-11T07:28:19.140Z,995.36
2019-02-11T07:29:19.128Z,995.37
2019-02-11T07:30:19.238Z,995.51
2019-02-11T07:31:19.118Z,995.49
2019-02-11T07:32:19.082Z,995.51
2019-02-11T07:33:19.068Z,995.50
2019-02-11T07:34:19.091Z,995.50
2019-02-11T07:35:19.052Z,995.52
2019-02-11T07:36:19.043Z,995.57
2019-02-11T07:37:19.022Z,995.59
2019-02-11T07:38:19.015Z,995.65
2019-02-11T07:39:19.006Z,995.65
2019-02-11T07:40:18.991Z,995.72
2019-02-11T07:41:18.979Z,995.74
2019-02-11T07:42:18.987Z,995.75
2019-02-11T07:43:18.960Z,995.86
2019-02-11T07:44:18.941Z,995.83
2019-02-11T07:45:18.935Z,995.87
2019-02-11T07:46:18.932Z,995.87
2019-02-11T07:47:18.923Z,995.93
2019-02-11T07:48:18.923Z,995.98
2019-02-11T07:49:18.895Z,996.06
2019-02-11T07:50:18.885Z,996.09
2019-02-11T07:51:18.881Z,996.05
2019-02-11T07:52:26.494Z,995.99
2019-02-11T07:53:19.849Z,996.07
2019-02-11T07:54:18.834Z,996.09
2019-02-11T07:55:18.846Z,996.01
2019-02-11T07:56:18.821Z,996.04
2019-02-11T07:57:18.807Z,996.02
2019-02-11T07:58:18.807Z,996.11
2019-02-11T07:59:18.804Z,996.13
2019-02-11T08:00:18.770Z,996.11
2019-02-11T08:01:18.764Z,996.27
2019-02-11T08:02:18.847Z,996.21
2019-02-11T08:03:18.785Z,996.24
2019-02-11T08:04:18.734Z,996.31
2019-02-11T08:05:18.723Z,996.34
2019-02-11T08:06:18.714Z,996.26
2019-02-11T08:07:18.695Z,996.30
2019-02-11T08:08:18.688Z,996.34
2019-02-11T08:09:18.687Z,996.34
2019-02-11T08:10:18.670Z,996.34
2019-02-11T08:11:18.673Z,996.41
2019-02-11T08:12:18.654Z,996.35
2019-02-11T08:13:18.629Z,996.33
2019-02-11T08:14:18.665Z,996.40
2019-02-11T08:15:18.615Z,996.40
2019-02-11T08:16:18.594Z,996.37
2019-02-11T08:17:18.590Z,996.39
2019-02-11T08:18:18.610Z,996.36
2019-02-11T08:19:18.568Z,996.41
2019-02-11T08:20:18.563Z,996.45
2019-02-11T08:21:18.563Z,996.48
2019-02-11T08:22:18.548Z,996.52
2019-02-11T08:23:18.521Z,996.56
2019-02-11T08:24:18.568Z,996.59
2019-02-11T08:25:18.500Z,996.60
2019-02-11T08:26:18.499Z,996.58
2019-02-11T08:27:18.500Z,996.55
2019-02-11T08:28:19.806Z,996.58
2019-02-11T08:29:18.459Z,996.63
2019-02-11T08:30:18.446Z,996.68
2019-02-11T08:31:18.485Z,996.72
2019-02-11T08:32:18.464Z,996.70
2019-02-11T08:33:18.415Z,996.72
2019-02-11T08:34:18.444Z,996.72
2019-02-11T08:35:18.397Z,996.79
2019-02-11T08:36:18.378Z,996.76
2019-02-11T08:37:18.371Z,996.76
2019-02-11T08:38:18.380Z,996.81
2019-02-11T08:39:18.364Z,996.89
2019-02-11T08:40:18.333Z,996.87
2019-02-11T08:41:18.433Z,996.88
2019-02-11T08:42:18.320Z,996.96
2019-02-11T08:43:18.309Z,996.94
2019-02-11T08:44:18.297Z,997.02
2019-02-11T08:45:18.302Z,996.97
2019-02-11T08:46:18.272Z,997.09
2019-02-11T08:47:19.443Z,997.11
2019-02-11T08:48:18.253Z,997.05
2019-02-11T08:49:18.244Z,997.09
2019-02-11T08:50:18.242Z,997.07
2019-02-11T08:51:18.237Z,997.08
2019-02-11T08:52:18.207Z,997.13
2019-02-11T08:53:18.190Z,997.15
2019-02-11T08:54:18.188Z,997.19
2019-02-11T08:55:18.179Z,997.24
2019-02-11T08:56:18.172Z,997.26
2019-02-11T08:57:18.147Z,997.29
2019-02-11T08:58:18.147Z,997.36
2019-02-11T08:59:18.125Z,997.34
2019-02-11T09:00:18.146Z,997.34
2019-02-11T09:01:18.149Z,997.40
2019-02-11T09:02:18.112Z,997.45
2019-02-11T09:03:18.080Z,997.37
2019-02-11T09:04:19.202Z,997.49
2019-02-11T09:05:18.067Z,997.50
2019-02-11T09:06:18.129Z,997.52
2019-02-11T09:07:18.064Z,997.52
2019-02-11T09:08:18.064Z,997.58
2019-02-11T09:09:18.078Z,997.57
2019-02-11T09:10:18.045Z,997.53
2019-02-11T09:11:17.999Z,997.56
2019-02-11T09:12:17.990Z,997.64
2019-02-11T09:13:17.988Z,997.63
2019-02-11T09:14:17.962Z,997.75
2019-02-11T09:15:17.960Z,997.70
2019-02-11T09:16:17.942Z,997.76
2019-02-11T09:17:17.933Z,997.80
2019-02-11T09:18:17.933Z,997.90
2019-02-11T09:19:17.922Z,997.87
2019-02-11T09:20:17.903Z,997.93
2019-02-11T09:21:17.897Z,998.00
2019-02-11T09:22:17.871Z,997.97
2019-02-11T09:23:17.877Z,997.97
2019-02-11T09:24:17.872Z,997.98
2019-02-11T09:25:17.849Z,998.01
2019-02-11T09:26:17.826Z,998.02
2019-02-11T09:27:17.827Z,998.10
2019-02-11T09:28:17.807Z,998.16
2019-02-11T09:29:17.794Z,998.20
2019-02-11T09:30:17.791Z,998.17
2019-02-11T09:31:17.808Z,998.28
2019-02-11T09:32:18.292Z,998.26
2019-02-11T09:33:17.757Z,998.31
2019-02-11T09:34:17.740Z,998.41
2019-02-11T09:35:17.780Z,998.33
2019-02-11T09:36:17.739Z,998.43
2019-02-11T09:37:17.711Z,998.35
2019-02-11T09:38:17.756Z,998.44
2019-02-11T09:39:17.686Z,998.41
2019-02-11T09:40:17.831Z,998.42
2019-02-11T09:41:17.675Z,998.51
2019-02-11T09:42:17.656Z,998.49
2019-02-11T09:43:17.656Z,998.51
2019-02-11T09:44:17.636Z,998.55
2019-02-11T09:45:17.629Z,998.48
2019-02-11T09:46:17.617Z,998.50
2019-02-11T09:47:17.604Z,998.54
2019-02-11T09:48:17.608Z,998.51
2019-02-11T09:49:17.604Z,998.55
2019-02-11T09:50:17.578Z,998.58
2019-02-11T09:51:17.621Z,998.55
2019-02-11T09:52:17.554Z,998.59
2019-02-11T09:53:17.534Z,998.57
2019-02-11T09:54:17.529Z,998.57
2019-02-11T09:55:17.517Z,998.76
2019-02-11T09:56:17.505Z,998.64
2019-02-11T09:57:17.555Z,998.70
2019-02-11T09:58:17.487Z,998.64
2019-02-11T09:59:17.483Z,998.62
2019-02-11T10:00:17.472Z,998.72
2019-02-11T10:01:17.464Z,998.74
2019-02-11T10:02:17.449Z,998.72
2019-02-11T10:03:17.432Z,998.77
2019-02-11T10:04:17.442Z,998.81
2019-02-11T10:05:17.408Z,998.83
2019-02-11T10:06:17.408Z,998.92
2019-02-11T10:07:17.419Z,998.84
2019-02-11T10:08:17.380Z,998.85
2019-02-11T10:09:17.367Z,998.95
2019-02-11T10:10:17.359Z,998.93
2019-02-11T10:11:17.341Z,998.99
2019-02-11T10:12:21.495Z,998.90
2019-02-11T10:13:17.330Z,999.03
2019-02-11T10:14:17.317Z,998.91
2019-02-11T10:15:17.319Z,998.94
2019-02-11T10:16:17.310Z,999.02
2019-02-11T10:17:17.286Z,999.04
2019-02-11T10:18:17.279Z,999.04
2019-02-11T10:19:17.264Z,999.06
2019-02-11T10:20:17.288Z,999.09
2019-02-11T10:21:17.243Z,998.97
2019-02-11T10:22:17.224Z,999.04
2019-02-11T10:23:17.217Z,999.09
2019-02-11T10:24:17.244Z,999.20
2019-02-11T10:25:17.207Z,999.21
2019-02-11T10:26:17.199Z,999.27
2019-02-11T10:27:17.195Z,999.20
2019-02-11T10:28:17.165Z,999.23
2019-02-11T10:29:17.211Z,999.31
2019-02-11T10:30:17.142Z,999.38
2019-02-11T10:31:17.134Z,999.39
2019-02-11T10:32:17.132Z,999.33
2019-02-11T10:33:17.145Z,999.34
2019-02-11T10:34:17.098Z,999.37
2019-02-11T10:35:17.079Z,999.40
2019-02-11T10:36:17.082Z,999.27
2019-02-11T10:37:17.104Z,999.28
2019-02-11T10:38:17.091Z,999.26
2019-02-11T10:39:17.036Z,999.28
2019-02-11T10:40:17.031Z,999.30
2019-02-11T10:41:17.010Z,999.33
2019-02-11T10:42:17.008Z,999.34
2019-02-11T10:43:16.999Z,999.36
2019-02-11T10:44:17.004Z,999.47
2019-02-11T10:45:16.974Z,999.40
2019-02-11T10:46:21.094Z,999.52
2019-02-11T10:47:16.956Z,999.57
2019-02-11T10:48:16.959Z,999.54
2019-02-11T10:49:16.935Z,999.52
2019-02-11T10:50:16.932Z,999.50
2019-02-11T10:51:16.912Z,999.49
2019-02-11T10:52:16.923Z,999.44
2019-02-11T10:53:16.883Z,999.56
2019-02-11T10:54:16.885Z,999.48
2019-02-11T10:55:16.880Z,999.48
2019-02-11T10:56:16.875Z,999.55
2019-02-11T10:57:16.847Z,999.58
2019-02-11T10:58:16.830Z,999.57
2019-02-11T10:59:16.824Z,999.59
2019-02-11T11:00:16.827Z,999.63
2019-02-11T11:01:16.804Z,999.59
2019-02-11T11:02:16.789Z,999.69
2019-02-11T11:03:16.778Z,999.73
2019-02-11T11:04:16.767Z,999.70
2019-02-11T11:05:16.751Z,999.65
2019-02-11T11:06:16.757Z,999.75
2019-02-11T11:07:16.762Z,999.62
2019-02-11T11:08:16.724Z,999.68
2019-02-11T11:09:16.763Z,999.70
2019-02-11T11:10:16.698Z,999.78
2019-02-11T11:11:16.687Z,999.76
2019-02-11T11:12:16.706Z,999.85
2019-02-11T11:13:16.665Z,999.89
2019-02-11T11:14:16.660Z,999.90
2019-02-11T11:15:16.676Z,999.82
2019-02-11T11:16:16.639Z,999.91
2019-02-11T11:17:16.623Z,999.92
2019-02-11T11:18:16.638Z,1000.00
2019-02-11T11:19:16.599Z,1000.09
2019-02-11T11:20:16.591Z,1000.02
2019-02-11T11:21:16.591Z,1000.04
2019-02-11T11:22:16.560Z,1000.01
2019-02-11T11:23:16.565Z,1000.10
2019-02-11T11:24:16.558Z,1000.01
2019-02-11T11:25:16.529Z,1000.04
2019-02-11T11:26:16.519Z,1000.01
2019-02-11T11:27:16.510Z,1000.12
2019-02-11T11:28:16.512Z,1000.10
2019-02-11T11:29:16.492Z,1000.09
2019-02-11T11:30:16.478Z,1000.12
2019-02-11T11:31:16.464Z,1000.06
2019-02-11T11:32:16.454Z,1000.11
2019-02-11T11:33:16.473Z,1000.15
2019-02-11T11:34:16.434Z,1000.15
2019-02-11T11:35:16.433Z,1000.11
2019-02-11T11:36:16.412Z,1000.15
2019-02-11T11:37:16.405Z,1000.03
2019-02-11T11:38:16.386Z,1000.16
2019-02-11T11:39:16.385Z,1000.16
2019-02-11T11:40:16.380Z,1000.23
2019-02-11T11:41:16.415Z,1000.22
2019-02-11T11:42:16.339Z,1000.13
2019-02-11T11:43:16.327Z,1000.24
2019-02-11T11:44:16.323Z,1000.20
2019-02-11T11:45:16.328Z,1000.15
2019-02-11T11:46:16.307Z,1000.27
2019-02-11T11:47:16.287Z,1000.38
2019-02-11T11:48:16.290Z,1000.28
2019-02-11T11:49:16.276Z,1000.26
2019-02-11T11:50:16.268Z,1000.27
2019-02-11T11:51:16.259Z,1000.34
2019-02-11T11:52:16.239Z,1000.46
2019-02-11T11:53:16.223Z,1000.42
2019-02-11T11:54:16.218Z,1000.33
2019-02-11T11:55:16.208Z,1000.44
2019-02-11T11:56:16.216Z,1000.51
2019-02-11T11:57:16.189Z,1000.40
2019-02-11T11:58:16.174Z,1000.41
2019-02-11T11:59:16.202Z,1000.46
2019-02-11T12:00:16.173Z,1000.50
2019-02-11T12:01:19.501Z,1000.44
2019-02-11T12:02:16.632Z,1000.60
2019-02-11T12:03:16.167Z,1000.52
2019-02-11T12:04:16.155Z,1000.57
2019-02-11T12:05:16.091Z,1000.64
2019-02-11T12:06:16.118Z,1000.68
2019-02-11T12:07:16.089Z,1000.67
2019-02-11T12:08:16.104Z,1000.69
2019-02-11T12:09:16.126Z,1000.65
2019-02-11T12:10:16.041Z,1000.67
2019-02-11T12:11:16.037Z,1000.79
2019-02-11T12:12:16.023Z,1000.77
2019-02-11T12:13:22.446Z,1000.92
2019-02-11T12:14:16.994Z,1000.83
2019-02-11T12:15:16.020Z,1000.92
2019-02-11T12:16:15.982Z,1000.84
2019-02-11T12:17:15.969Z,1000.84
2019-02-11T12:18:15.953Z,1001.10
2019-02-11T12:19:15.969Z,1000.96
2019-02-11T12:20:15.986Z,1000.86
2019-02-11T12:21:16.000Z,1001.03
2019-02-11T12:22:15.917Z,1000.98
2019-02-11T12:23:15.893Z,1000.94
2019-02-11T12:24:16.668Z,1000.98
2019-02-11T12:25:15.884Z,1000.97
2019-02-11T12:26:15.920Z,1000.99